Time;durP1;ratioP1;P1;durP2;ratioP2;P2;SDS_P1;SDS_P2;PMS_P1;PMS_P2;Temp;Humidity;BMP_temperature;BMP_pressure;BME280_temperature;BME280_humidity;BME280_pressure;Samples;Min_cycle;Max_cycle;Signal;HPM_P1;HPM_P2
2022/08/27 00:01:33;;;;;;;;;;;19.00;99.90;;;;;;5053056;28;20283;-76
2022/08/27 00:03:58;;;;;;;;;;;18.90;99.90;;;;;;5052808;28;20394;-75
2022/08/27 00:06:24;;;;;;;;;;;18.90;99.90;;;;;;5053190;28;20362;-86
2022/08/27 00:08:51;;;;;;;;;;;18.90;99.90;;;;;;5052869;28;19909;-86
2022/08/27 00:11:18;;;;;;;;;;;18.80;99.90;;;;;;5055354;28;20290;-86
2022/08/27 00:13:44;;;;;;;;;;;18.80;99.90;;;;;;5052481;28;19915;-75
2022/08/27 00:16:11;;;;;;;;;;;18.70;99.90;;;;;;5052900;28;20015;-75
2022/08/27 00:18:37;;;;;;;;;;;18.70;99.90;;;;;;5052438;28;20401;-86
2022/08/27 00:21:03;;;;;;;;;;;18.70;99.90;;;;;;5053157;28;19952;-86
2022/08/27 00:23:28;;;;;;;;;;;18.60;99.90;;;;;;5051079;28;19948;-86
2022/08/27 00:25:54;;;;;;;;;;;18.60;99.90;;;;;;5052868;28;19956;-86
2022/08/27 00:28:20;;;;;;;;;;;18.50;99.90;;;;;;5061003;28;19913;-86
2022/08/27 00:30:46;;;;;;;;;;;18.50;99.90;;;;;;5059778;28;19931;-86
2022/08/27 00:33:11;;;;;;;;;;;18.50;99.90;;;;;;5053883;28;20361;-75
2022/08/27 00:35:37;;;;;;;;;;;18.50;99.90;;;;;;5054121;28;19963;-86
2022/08/27 00:38:04;;;;;;;;;;;18.40;99.90;;;;;;5056415;28;20368;-86
2022/08/27 00:40:29;;;;;;;;;;;18.40;99.90;;;;;;5056478;28;19913;-86
2022/08/27 00:42:56;;;;;;;;;;;18.40;99.90;;;;;;5056303;28;19908;-86
2022/08/27 00:45:22;;;;;;;;;;;18.40;99.90;;;;;;5056087;28;19908;-86
2022/08/27 00:47:49;;;;;;;;;;;18.30;99.90;;;;;;5055210;28;19908;-87
2022/08/27 00:50:17;;;;;;;;;;;18.30;99.90;;;;;;5058506;28;19909;-86
2022/08/27 00:52:45;;;;;;;;;;;18.30;99.90;;;;;;5056087;28;19916;-75
2022/08/27 00:55:13;;;;;;;;;;;18.20;99.90;;;;;;5057790;28;19916;-85
2022/08/27 00:57:40;;;;;;;;;;;18.20;99.90;;;;;;5056007;28;19909;-86
2022/08/27 01:00:08;;;;;;;;;;;18.20;99.90;;;;;;5055717;28;20006;-86
2022/08/27 01:02:34;;;;;;;;;;;18.20;99.90;;;;;;5054542;28;20391;-86
2022/08/27 01:05:01;;;;;;;;;;;18.20;99.90;;;;;;5055975;28;19908;-86
2022/08/27 01:07:28;;;;;;;;;;;18.20;99.90;;;;;;5055729;28;19916;-86
2022/08/27 01:09:54;;;;;;;;;;;18.20;99.90;;;;;;5060236;28;19955;-86
2022/08/27 01:12:20;;;;;;;;;;;18.10;99.90;;;;;;5057942;28;19917;-86
2022/08/27 01:14:45;;;;;;;;;;;18.10;99.90;;;;;;5055466;28;19916;-86
2022/08/27 01:17:12;;;;;;;;;;;18.10;99.90;;;;;;5055242;28;20368;-86
2022/08/27 01:19:53;;;;;;;;;;;18.10;99.90;;;;;;5055452;28;19917;-75
2022/08/27 01:22:37;;;;;;;;;;;18.10;99.90;;;;;;5057274;28;20376;-75
2022/08/27 01:25:06;;;;;;;;;;;18.00;99.90;;;;;;5055255;28;19908;-86
2022/08/27 01:27:31;;;;;;;;;;;18.00;99.90;;;;;;5055427;28;19991;-85
2022/08/27 01:29:57;;;;;;;;;;;18.00;99.90;;;;;;5054622;28;20012;-75
2022/08/27 01:32:27;;;;;;;;;;;17.90;99.90;;;;;;5055344;28;19920;-75
2022/08/27 01:34:53;;;;;;;;;;;17.80;99.90;;;;;;5055401;28;20290;-86
2022/08/27 01:37:19;;;;;;;;;;;17.80;99.90;;;;;;5055091;28;19913;-86
2022/08/27 01:39:45;;;;;;;;;;;17.80;99.90;;;;;;5055194;28;19908;-86
2022/08/27 01:42:14;;;;;;;;;;;17.80;99.90;;;;;;5055206;28;20331;-86
2022/08/27 01:44:40;;;;;;;;;;;17.70;99.90;;;;;;5054976;28;19908;-75
2022/08/27 01:47:06;;;;;;;;;;;17.70;99.90;;;;;;5053376;28;19916;-86
2022/08/27 01:49:32;;;;;;;;;;;17.70;99.90;;;;;;5052176;28;19909;-86
2022/08/27 01:51:57;;;;;;;;;;;17.70;99.90;;;;;;5056938;28;19959;-86
2022/08/27 01:54:23;;;;;;;;;;;17.70;99.90;;;;;;5055079;28;19909;-86
2022/08/27 01:56:48;;;;;;;;;;;17.60;99.90;;;;;;5056520;28;20428;-82
2022/08/27 01:59:14;;;;;;;;;;;17.60;99.90;;;;;;5053761;28;19919;-75
2022/08/27 02:01:39;;;;;;;;;;;17.60;99.90;;;;;;5054874;28;19909;-85
2022/08/27 02:04:05;;;;;;;;;;;17.60;99.90;;;;;;5055023;28;19909;-86
2022/08/27 02:06:30;;;;;;;;;;;17.60;99.90;;;;;;5054861;28;19909;-85
2022/08/27 02:08:56;;;;;;;;;;;17.60;99.90;;;;;;5059203;28;20282;-86
2022/08/27 02:11:21;;;;;;;;;;;17.60;99.90;;;;;;5056450;28;19962;-74
2022/08/27 02:13:47;;;;;;;;;;;17.60;99.90;;;;;;5054245;28;19909;-85
2022/08/27 02:16:12;;;;;;;;;;;17.60;99.90;;;;;;5054628;28;19960;-86
2022/08/27 02:18:38;;;;;;;;;;;17.50;99.90;;;;;;5054260;28;19995;-86
2022/08/27 02:21:04;;;;;;;;;;;17.50;99.90;;;;;;5059508;28;20383;-86
2022/08/27 02:23:30;;;;;;;;;;;17.40;99.90;;;;;;5053952;28;19909;-75
2022/08/27 02:25:55;;;;;;;;;;;17.50;99.90;;;;;;5054631;28;19954;-75
2022/08/27 02:28:21;;;;;;;;;;;17.50;99.90;;;;;;5062561;28;20284;-86
2022/08/27 02:30:46;;;;;;;;;;;17.40;99.90;;;;;;5054216;28;19932;-86
2022/08/27 02:33:12;;;;;;;;;;;17.50;99.90;;;;;;5054361;28;19909;-86
2022/08/27 02:35:39;;;;;;;;;;;17.50;99.90;;;;;;5054215;28;19936;-86
2022/08/27 02:38:05;;;;;;;;;;;17.50;99.90;;;;;;5054067;28;20007;-75
2022/08/27 02:40:31;;;;;;;;;;;17.40;99.90;;;;;;5054292;28;19913;-75
2022/08/27 02:42:56;;;;;;;;;;;17.40;99.90;;;;;;5052624;28;19959;-86
2022/08/27 02:45:22;;;;;;;;;;;17.30;99.90;;;;;;5052457;28;19916;-86
2022/08/27 02:47:48;;;;;;;;;;;17.30;99.90;;;;;;5053147;28;20003;-75
2022/08/27 02:50:13;;;;;;;;;;;17.20;99.90;;;;;;5059053;28;19995;-86
2022/08/27 02:52:39;;;;;;;;;;;17.20;99.90;;;;;;5053861;28;19909;-75
2022/08/27 02:55:05;;;;;;;;;;;17.20;99.90;;;;;;5055011;28;20303;-86
2022/08/27 02:57:31;;;;;;;;;;;17.10;99.90;;;;;;5054098;28;19970;-86
2022/08/27 02:59:57;;;;;;;;;;;17.10;99.90;;;;;;5052851;28;20357;-86
2022/08/27 03:02:22;;;;;;;;;;;17.10;99.90;;;;;;5053876;28;19955;-86
2022/08/27 03:04:48;;;;;;;;;;;17.10;99.90;;;;;;5053857;28;19917;-75
2022/08/27 03:07:14;;;;;;;;;;;17.10;99.90;;;;;;5053754;28;20002;-74
2022/08/27 03:09:40;;;;;;;;;;;17.00;99.90;;;;;;5053912;28;20345;-86
2022/08/27 03:12:05;;;;;;;;;;;17.00;99.90;;;;;;5054977;28;19952;-86
2022/08/27 03:14:31;;;;;;;;;;;17.00;99.90;;;;;;5052519;28;19970;-86
2022/08/27 03:18:16;;;;;;;;;;;17.00;99.90;;;;;;5053467;28;20375;-75
2022/08/27 03:19:45;;;;;;;;;;;16.90;99.90;;;;;;5053341;28;19909;-86
2022/08/27 03:22:11;;;;;;;;;;;16.90;99.90;;;;;;5053481;28;19909;-86
2022/08/27 03:24:39;;;;;;;;;;;16.80;99.90;;;;;;5051794;28;19909;-86
2022/08/27 03:27:05;;;;;;;;;;;16.80;99.90;;;;;;5057352;28;19935;-86
2022/08/27 03:29:33;;;;;;;;;;;16.90;99.90;;;;;;5058261;28;19915;-75
2022/08/27 03:31:59;;;;;;;;;;;16.80;99.90;;;;;;5053454;28;19967;-75
2022/08/27 03:34:25;;;;;;;;;;;16.80;99.90;;;;;;5053189;28;20417;-75
2022/08/27 03:36:51;;;;;;;;;;;16.80;99.90;;;;;;5052991;28;19913;-86
2022/08/27 03:39:16;;;;;;;;;;;16.80;99.90;;;;;;5053351;28;19943;-86
2022/08/27 03:41:43;;;;;;;;;;;16.70;99.90;;;;;;5052980;28;19909;-85
2022/08/27 03:44:08;;;;;;;;;;;16.70;99.90;;;;;;5053013;28;20054;-74
2022/08/27 03:46:34;;;;;;;;;;;16.70;99.90;;;;;;5051146;28;20387;-85
2022/08/27 03:48:59;;;;;;;;;;;16.60;99.90;;;;;;5053858;28;19909;-75
2022/08/27 03:51:25;;;;;;;;;;;16.60;99.90;;;;;;5059321;28;19908;-86
2022/08/27 03:53:50;;;;;;;;;;;16.60;99.90;;;;;;5053156;28;19948;-86
2022/08/27 03:56:16;;;;;;;;;;;16.50;99.90;;;;;;5054743;28;19913;-74
2022/08/27 03:58:41;;;;;;;;;;;16.50;99.90;;;;;;5054685;28;19913;-86
2022/08/27 04:01:07;;;;;;;;;;;16.40;99.90;;;;;;5055207;28;20376;-86
2022/08/27 04:03:33;;;;;;;;;;;16.40;99.90;;;;;;5053030;28;19908;-86
2022/08/27 04:05:58;;;;;;;;;;;16.40;99.90;;;;;;5053130;28;19909;-86
2022/08/27 04:08:24;;;;;;;;;;;16.40;99.90;;;;;;5054471;28;19967;-75
2022/08/27 04:10:50;;;;;;;;;;;16.40;99.90;;;;;;5060177;28;19909;-75
2022/08/27 04:13:16;;;;;;;;;;;16.40;99.90;;;;;;5056750;28;19984;-86
2022/08/27 04:15:43;;;;;;;;;;;16.40;99.90;;;;;;5056815;28;20031;-86
2022/08/27 04:18:08;;;;;;;;;;;16.40;99.90;;;;;;5054653;28;19916;-84
2022/08/27 04:20:34;;;;;;;;;;;16.40;99.90;;;;;;5061685;28;19913;-85
2022/08/27 04:23:00;;;;;;;;;;;16.40;99.90;;;;;;5056316;28;19912;-75
2022/08/27 04:25:25;;;;;;;;;;;16.40;99.90;;;;;;5056631;28;20303;-86
2022/08/27 04:27:51;;;;;;;;;;;16.40;99.90;;;;;;5065077;28;19908;-86
2022/08/27 04:30:18;;;;;;;;;;;16.40;99.90;;;;;;5056330;28;19959;-75
2022/08/27 04:32:43;;;;;;;;;;;16.40;99.90;;;;;;5056630;28;19990;-85
2022/08/27 04:35:10;;;;;;;;;;;16.40;99.90;;;;;;5056298;28;19908;-75
2022/08/27 04:37:36;;;;;;;;;;;16.40;99.90;;;;;;5056531;28;19912;-75
2022/08/27 04:40:02;;;;;;;;;;;16.40;99.90;;;;;;5056382;28;20000;-86
2022/08/27 04:42:27;;;;;;;;;;;16.40;99.90;;;;;;5056286;28;19916;-85
2022/08/27 04:44:53;;;;;;;;;;;16.40;99.90;;;;;;5056268;28;19913;-86
2022/08/27 04:47:19;;;;;;;;;;;16.40;99.90;;;;;;5055951;28;19916;-74
2022/08/27 04:49:44;;;;;;;;;;;16.40;99.90;;;;;;5059919;28;19999;-75
2022/08/27 04:52:10;;;;;;;;;;;16.40;99.90;;;;;;5054668;28;19951;-86
2022/08/27 04:54:35;;;;;;;;;;;16.30;99.90;;;;;;5056201;28;19909;-86
2022/08/27 04:57:02;;;;;;;;;;;16.20;99.90;;;;;;5057903;28;19917;-86
2022/08/27 04:59:28;;;;;;;;;;;16.20;99.90;;;;;;5055846;28;19916;-84
2022/08/27 05:01:54;;;;;;;;;;;16.10;99.90;;;;;;5055934;28;19920;-75
2022/08/27 05:04:19;;;;;;;;;;;16.10;99.90;;;;;;5056154;28;19909;-86
2022/08/27 05:06:45;;;;;;;;;;;16.00;99.90;;;;;;5056111;28;19915;-85
2022/08/27 05:09:12;;;;;;;;;;;16.00;99.90;;;;;;5056020;28;19916;-86
2022/08/27 05:11:38;;;;;;;;;;;16.10;99.90;;;;;;5058893;28;19909;-86
2022/08/27 05:14:04;;;;;;;;;;;16.10;99.90;;;;;;5055679;28;19915;-74
2022/08/27 05:16:30;;;;;;;;;;;16.10;99.90;;;;;;5054195;28;20295;-75
2022/08/27 05:18:57;;;;;;;;;;;16.10;99.90;;;;;;5055154;28;19909;-86
2022/08/27 05:21:24;;;;;;;;;;;16.10;99.90;;;;;;5055431;28;20003;-83
2022/08/27 05:23:50;;;;;;;;;;;16.10;99.90;;;;;;5054856;28;19909;-86
2022/08/27 05:26:16;;;;;;;;;;;16.10;99.90;;;;;;5055757;28;19975;-86
2022/08/27 05:28:41;;;;;;;;;;;16.10;99.90;;;;;;5064359;28;20368;-74
2022/08/27 05:31:08;;;;;;;;;;;16.10;99.90;;;;;;5055437;28;19925;-86
2022/08/27 05:33:34;;;;;;;;;;;16.10;99.90;;;;;;5055553;28;20154;-86
2022/08/27 05:36:00;;;;;;;;;;;16.10;99.90;;;;;;5048942;28;19971;-75
2022/08/27 05:38:27;;;;;;;;;;;16.10;99.90;;;;;;5055272;28;19956;-86
2022/08/27 05:41:07;;;;;;;;;;;16.10;99.90;;;;;;5054974;28;19909;-75
2022/08/27 05:43:34;;;;;;;;;;;16.20;99.90;;;;;;5054021;28;19909;-84
2022/08/27 05:46:03;;;;;;;;;;;16.20;99.90;;;;;;5053911;28;19909;-85
2022/08/27 05:48:28;;;;;;;;;;;16.20;99.90;;;;;;5059454;28;19908;-85
2022/08/27 05:50:53;;;;;;;;;;;16.20;99.90;;;;;;5054796;28;19924;-86
2022/08/27 05:53:19;;;;;;;;;;;16.30;99.90;;;;;;5053895;28;19916;-85
2022/08/27 05:55:44;;;;;;;;;;;16.30;99.90;;;;;;5056977;28;20011;-86
2022/08/27 06:01:03;;;;;;;;;;;16.30;99.90;;;;;;5054857;28;20275;-86
2022/08/27 06:01:03;;;;;;;;;;;16.40;99.90;;;;;;5054868;28;19916;-86
2022/08/27 06:03:30;;;;;;;;;;;16.40;99.90;;;;;;5054861;28;19955;-75
2022/08/27 06:06:00;;;;;;;;;;;16.40;99.90;;;;;;5054766;28;19908;-86
2022/08/27 06:08:25;;;;;;;;;;;16.50;99.90;;;;;;5054111;28;19974;-75
2022/08/27 06:10:51;;;;;;;;;;;16.50;99.90;;;;;;5058910;28;20367;-75
2022/08/27 06:13:17;;;;;;;;;;;16.60;99.90;;;;;;5054326;28;20007;-80
2022/08/27 06:15:43;;;;;;;;;;;16.60;99.90;;;;;;5054668;28;19920;-86
2022/08/27 06:18:08;;;;;;;;;;;16.70;99.90;;;;;;5054347;28;19988;-75
2022/08/27 06:20:34;;;;;;;;;;;16.80;99.90;;;;;;5059227;28;19912;-86
2022/08/27 06:22:59;;;;;;;;;;;16.90;99.90;;;;;;5053535;28;20372;-86
2022/08/27 06:25:25;;;;;;;;;;;17.10;99.90;;;;;;5054694;28;19909;-86
2022/08/27 06:27:50;;;;;;;;;;;17.20;99.90;;;;;;5062768;28;19913;-86
2022/08/27 06:30:16;;;;;;;;;;;17.30;99.90;;;;;;5053872;28;19932;-85
2022/08/27 06:32:41;;;;;;;;;;;17.30;99.90;;;;;;5054177;28;20042;-85
2022/08/27 06:35:07;;;;;;;;;;;17.40;99.90;;;;;;5053999;28;19909;-85
2022/08/27 06:37:32;;;;;;;;;;;17.60;99.90;;;;;;5054250;28;19920;-86
2022/08/27 06:39:58;;;;;;;;;;;17.60;99.90;;;;;;5054245;28;20296;-86
2022/08/27 06:42:25;;;;;;;;;;;17.70;99.90;;;;;;5053253;28;20231;-75
2022/08/27 06:44:52;;;;;;;;;;;17.80;99.90;;;;;;5053695;28;19960;-75
2022/08/27 06:47:18;;;;;;;;;;;17.90;99.90;;;;;;5054565;28;19911;-86
2022/08/27 06:49:43;;;;;;;;;;;18.10;99.90;;;;;;5060291;28;19916;-86
2022/08/27 06:52:08;;;;;;;;;;;18.20;99.90;;;;;;5058476;28;19999;-86
2022/08/27 06:54:34;;;;;;;;;;;18.30;99.90;;;;;;5053909;28;19959;-85
2022/08/27 06:57:00;;;;;;;;;;;18.50;99.90;;;;;;5055373;28;19935;-86
2022/08/27 06:59:26;;;;;;;;;;;18.60;99.90;;;;;;5053550;28;20309;-74
2022/08/27 07:01:52;;;;;;;;;;;18.70;99.90;;;;;;5053740;28;20031;-86
2022/08/27 07:04:19;;;;;;;;;;;18.80;99.90;;;;;;5053746;28;19940;-86
2022/08/27 07:06:44;;;;;;;;;;;18.90;99.90;;;;;;5053731;28;19916;-86
2022/08/27 07:09:10;;;;;;;;;;;19.00;99.90;;;;;;5059213;28;19962;-86
2022/08/27 07:11:37;;;;;;;;;;;19.10;99.90;;;;;;5056516;28;19992;-75
2022/08/27 07:14:03;;;;;;;;;;;19.20;99.90;;;;;;5053399;28;19913;-87
2022/08/27 07:16:29;;;;;;;;;;;19.20;99.90;;;;;;5053226;28;20283;-86
2022/08/27 07:18:55;;;;;;;;;;;19.30;99.90;;;;;;5052272;28;20012;-86
2022/08/27 07:21:22;;;;;;;;;;;19.50;99.90;;;;;;5058926;28;20384;-86
2022/08/27 07:23:48;;;;;;;;;;;19.50;99.90;;;;;;5053104;28;19914;-75
2022/08/27 07:26:14;;;;;;;;;;;19.60;99.90;;;;;;5053582;28;20383;-75
2022/08/27 07:28:41;;;;;;;;;;;19.50;99.90;;;;;;5065818;28;20334;-86
2022/08/27 07:31:10;;;;;;;;;;;19.60;99.90;;;;;;5058048;28;19925;-86
2022/08/27 07:33:36;;;;;;;;;;;19.90;99.90;;;;;;5053190;28;19931;-84
2022/08/27 07:36:02;;;;;;;;;;;20.10;99.90;;;;;;5053108;28;20383;-75
2022/08/27 07:38:28;;;;;;;;;;;20.10;99.90;;;;;;5053313;28;20276;-75
2022/08/27 07:40:53;;;;;;;;;;;20.30;99.90;;;;;;5053327;28;19962;-86
2022/08/27 07:46:04;;;;;;;;;;;20.10;99.90;;;;;;5056325;28;19932;-86
2022/08/27 07:48:31;;;;;;;;;;;20.00;99.90;;;;;;5057380;28;19971;-86
2022/08/27 07:50:57;;;;;;;;;;;20.00;99.90;;;;;;5053191;28;19940;-86
2022/08/27 07:53:23;;;;;;;;;;;20.00;99.90;;;;;;5053058;28;20025;-86
2022/08/27 07:55:48;;;;;;;;;;;20.00;99.90;;;;;;5054937;28;19920;-75
2022/08/27 07:58:14;;;;;;;;;;;20.10;99.90;;;;;;5052814;28;19913;-87
2022/08/27 08:00:43;;;;;;;;;;;20.20;99.90;;;;;;5052645;28;19952;-86
2022/08/27 08:03:09;;;;;;;;;;;20.50;99.90;;;;;;5052756;28;19909;-75
2022/08/27 08:05:35;;;;;;;;;;;20.90;99.90;;;;;;5052996;28;19966;-75
2022/08/27 08:08:01;;;;;;;;;;;21.70;99.90;;;;;;5052964;28;19909;-87
2022/08/27 08:10:27;;;;;;;;;;;22.70;99.90;;;;;;5061415;28;19913;-75
2022/08/27 08:12:52;;;;;;;;;;;24.20;98.80;;;;;;5053624;28;20261;-87
2022/08/27 08:15:18;;;;;;;;;;;25.40;96.90;;;;;;5052689;28;20314;-74
2022/08/27 08:17:44;;;;;;;;;;;26.60;95.40;;;;;;5052595;28;19913;-74
2022/08/27 08:20:11;;;;;;;;;;;28.40;93.90;;;;;;5057655;28;19970;-85
2022/08/27 08:22:36;;;;;;;;;;;29.10;92.70;;;;;;5052839;28;19959;-85
2022/08/27 08:25:02;;;;;;;;;;;31.00;91.40;;;;;;5052595;28;19956;-85
2022/08/27 08:27:28;;;;;;;;;;;31.10;90.70;;;;;;5059894;28;20038;-85
2022/08/27 08:29:53;;;;;;;;;;;30.90;90.90;;;;;;5053790;28;19916;-74
2022/08/27 08:32:20;;;;;;;;;;;30.20;91.20;;;;;;5052684;28;19913;-85
2022/08/27 08:34:45;;;;;;;;;;;29.80;91.50;;;;;;5052609;28;19909;-85
2022/08/27 08:37:13;;;;;;;;;;;29.10;91.80;;;;;;5052600;28;19919;-74
2022/08/27 08:39:39;;;;;;;;;;;28.90;92.20;;;;;;5052464;28;20317;-84
2022/08/27 08:42:06;;;;;;;;;;;30.20;91.50;;;;;;5052797;28;19919;-74
2022/08/27 08:44:44;;;;;;;;;;;31.50;90.70;;;;;;5052089;28;20288;-85
2022/08/27 08:47:13;;;;;;;;;;;32.50;89.40;;;;;;5050677;28;19996;-85
2022/08/27 08:49:45;;;;;;;;;;;33.10;88.80;;;;;;5057447;28;19916;-84
2022/08/27 08:52:30;;;;;;;;;;;33.60;88.00;;;;;;5057224;28;20000;-83
2022/08/27 08:54:59;;;;;;;;;;;34.00;86.70;;;;;;5052452;28;20340;-74
2022/08/27 08:57:29;;;;;;;;;;;34.80;86.00;;;;;;5053368;28;20382;-84
2022/08/27 09:00:08;;;;;;;;;;;35.40;84.80;;;;;;5055827;28;19913;-85
2022/08/27 09:02:34;;;;;;;;;;;35.30;84.80;;;;;;5052195;28;19908;-84
2022/08/27 09:05:04;;;;;;;;;;;34.40;84.70;;;;;;5054923;28;19909;-84
2022/08/27 09:07:48;;;;;;;;;;;33.60;86.10;;;;;;5055896;28;19909;-74
2022/08/27 09:10:22;;;;;;;;;;;34.10;86.20;;;;;;5061036;28;19916;-77
2022/08/27 09:12:47;;;;;;;;;;;34.10;85.50;;;;;;5047509;28;19913;-84
2022/08/27 09:15:20;;;;;;;;;;;34.50;85.10;;;;;;5055441;28;20352;-84
2022/08/27 09:17:47;;;;;;;;;;;35.10;84.20;;;;;;5055742;28;20379;-84
2022/08/27 09:20:13;;;;;;;;;;;35.10;84.60;;;;;;5055523;28;19945;-75
2022/08/27 09:22:57;;;;;;;;;;;35.70;84.20;;;;;;5049808;28;19967;-74
2022/08/27 09:25:28;;;;;;;;;;;35.50;83.50;;;;;;5052990;28;19956;-75
2022/08/27 09:27:56;;;;;;;;;;;35.50;83.10;;;;;;5064230;28;19914;-84
2022/08/27 09:30:23;;;;;;;;;;;35.80;83.00;;;;;;5055259;28;19964;-84
2022/08/27 09:32:56;;;;;;;;;;;36.20;82.90;;;;;;5055359;28;19966;-75
2022/08/27 09:35:24;;;;;;;;;;;36.70;82.70;;;;;;5055180;28;20396;-84
2022/08/27 09:37:51;;;;;;;;;;;36.40;81.90;;;;;;5055142;28;19916;-83
2022/08/27 09:40:22;;;;;;;;;;;35.90;82.70;;;;;;5055432;28;19908;-84
2022/08/27 09:42:51;;;;;;;;;;;35.80;83.00;;;;;;5053774;28;20358;-83
2022/08/27 09:45:25;;;;;;;;;;;35.90;83.50;;;;;;5055295;28;19909;-83
2022/08/27 09:48:01;;;;;;;;;;;34.70;83.70;;;;;;5054581;28;19916;-75
2022/08/27 09:50:31;;;;;;;;;;;34.00;85.20;;;;;;5062524;28;19920;-83
2022/08/27 09:52:58;;;;;;;;;;;33.90;85.50;;;;;;5054964;28;19916;-83
2022/08/27 09:55:32;;;;;;;;;;;33.90;85.80;;;;;;5056632;28;20046;-74
2022/08/27 09:57:58;;;;;;;;;;;34.40;84.80;;;;;;5054784;28;20007;-74
2022/08/27 10:00:35;;;;;;;;;;;35.60;84.30;;;;;;5054848;28;20407;-74
2022/08/27 10:03:02;;;;;;;;;;;36.00;82.90;;;;;;5054891;28;19909;-83
2022/08/27 10:05:31;;;;;;;;;;;36.30;82.60;;;;;;5054858;28;19916;-83
2022/08/27 10:08:01;;;;;;;;;;;36.50;81.90;;;;;;5054435;28;20326;-83
2022/08/27 10:10:35;;;;;;;;;;;36.30;82.40;;;;;;5061280;28;19932;-83
2022/08/27 10:13:05;;;;;;;;;;;35.90;82.30;;;;;;5054480;28;19966;-74
2022/08/27 10:15:35;;;;;;;;;;;35.90;82.30;;;;;;5054401;28;20352;-74
2022/08/27 10:18:01;;;;;;;;;;;36.60;82.00;;;;;;5054387;28;19913;-82
2022/08/27 10:20:33;;;;;;;;;;;36.70;81.80;;;;;;5058927;28;20409;-75
2022/08/27 10:23:04;;;;;;;;;;;36.20;81.50;;;;;;5051981;28;19908;-83
2022/08/27 10:25:50;;;;;;;;;;;36.60;81.90;;;;;;5054519;28;20000;-75
2022/08/27 10:28:15;;;;;;;;;;;36.50;81.60;;;;;;5062815;28;19917;-74
2022/08/27 10:30:44;;;;;;;;;;;36.90;81.60;;;;;;5054134;28;19925;-75
2022/08/27 10:33:18;;;;;;;;;;;35.90;82.20;;;;;;5054120;28;19958;-83
2022/08/27 10:35:50;;;;;;;;;;;34.80;83.50;;;;;;5054196;28;19952;-74
2022/08/27 10:38:23;;;;;;;;;;;34.60;83.50;;;;;;5054252;28;19908;-74
2022/08/27 10:40:53;;;;;;;;;;;34.20;84.50;;;;;;5054419;28;20335;-75
2022/08/27 10:43:21;;;;;;;;;;;34.20;84.00;;;;;;5053981;28;20362;-84
2022/08/27 10:45:50;;;;;;;;;;;33.70;83.80;;;;;;5052732;28;19908;-74
2022/08/27 10:48:37;;;;;;;;;;;33.80;84.20;;;;;;5053864;28;19912;-82
2022/08/27 10:51:24;;;;;;;;;;;34.20;85.10;;;;;;5061425;28;20348;-74
2022/08/27 10:53:56;;;;;;;;;;;34.00;84.80;;;;;;5054011;28;19963;-74
2022/08/27 10:56:29;;;;;;;;;;;33.40;84.60;;;;;;5056047;28;19913;-74
2022/08/27 10:59:01;;;;;;;;;;;33.20;85.40;;;;;;5053712;28;19912;-74
2022/08/27 11:01:50;;;;;;;;;;;33.30;84.80;;;;;;5045260;28;20375;-83
2022/08/27 11:04:24;;;;;;;;;;;33.20;84.20;;;;;;5050745;28;19912;-74
2022/08/27 11:06:53;;;;;;;;;;;33.30;84.50;;;;;;5053772;28;20027;-74
2022/08/27 11:09:39;;;;;;;;;;;33.50;83.60;;;;;;5058455;28;20375;-84
2022/08/27 11:12:06;;;;;;;;;;;33.00;84.00;;;;;;5054198;28;19991;-83
2022/08/27 11:14:34;;;;;;;;;;;32.60;84.60;;;;;;5053457;28;19909;-74
2022/08/27 11:17:05;;;;;;;;;;;32.60;86.80;;;;;;5053393;28;20355;-74
2022/08/27 11:19:40;;;;;;;;;;;32.40;87.10;;;;;;5052648;28;20334;-82
2022/08/27 11:22:15;;;;;;;;;;;31.60;86.20;;;;;;5049273;28;19940;-83
2022/08/27 11:25:00;;;;;;;;;;;31.10;88.20;;;;;;5052735;28;19908;-83
2022/08/27 11:27:29;;;;;;;;;;;30.90;89.50;;;;;;5059943;28;19908;-83
2022/08/27 11:29:59;;;;;;;;;;;30.90;89.10;;;;;;5054005;28;19959;-84
2022/08/27 11:32:46;;;;;;;;;;;31.00;89.10;;;;;;5053262;28;19921;-74
2022/08/27 11:35:15;;;;;;;;;;;31.70;87.60;;;;;;5053162;28;19919;-83
2022/08/27 11:37:59;;;;;;;;;;;31.00;88.30;;;;;;5053249;28;20367;-83
2022/08/27 11:40:51;;;;;;;;;;;30.00;89.70;;;;;;5045269;28;19916;-84
2022/08/27 11:43:20;;;;;;;;;;;29.60;90.70;;;;;;5050097;28;19948;-75
2022/08/27 11:45:59;;;;;;;;;;;29.40;90.80;;;;;;5052883;28;19916;-75
2022/08/27 11:48:27;;;;;;;;;;;29.90;90.70;;;;;;5052626;28;20398;-83
2022/08/27 11:51:05;;;;;;;;;;;29.90;90.50;;;;;;5061270;28;19916;-83
2022/08/27 11:53:35;;;;;;;;;;;30.10;90.00;;;;;;5051967;28;19908;-82
2022/08/27 11:56:14;;;;;;;;;;;30.10;90.30;;;;;;5054668;28;20398;-75
2022/08/27 11:58:41;;;;;;;;;;;30.20;90.40;;;;;;5052611;28;19909;-75
2022/08/27 12:01:13;;;;;;;;;;;30.30;90.40;;;;;;5052961;28;19916;-83
2022/08/27 12:03:39;;;;;;;;;;;30.20;89.80;;;;;;5053012;28;19917;-84
2022/08/27 12:06:05;;;;;;;;;;;30.00;90.10;;;;;;5052961;28;19920;-75
2022/08/27 12:08:33;;;;;;;;;;;29.70;90.80;;;;;;5055184;28;20376;-82
2022/08/27 12:10:59;;;;;;;;;;;30.00;90.80;;;;;;5057450;28;19909;-75
2022/08/27 12:13:30;;;;;;;;;;;30.40;90.00;;;;;;5050847;28;19913;-75
2022/08/27 12:16:11;;;;;;;;;;;30.50;89.40;;;;;;5052807;28;19916;-75
2022/08/27 12:18:39;;;;;;;;;;;30.90;89.70;;;;;;5052340;28;20046;-84
2022/08/27 12:21:12;;;;;;;;;;;31.00;88.60;;;;;;5058323;28;20002;-75
2022/08/27 12:23:41;;;;;;;;;;;31.10;87.70;;;;;;5052256;28;20003;-83
2022/08/27 12:26:15;;;;;;;;;;;31.00;87.60;;;;;;5053000;28;19917;-84
2022/08/27 12:28:41;;;;;;;;;;;31.10;86.70;;;;;;5061224;28;20289;-83
2022/08/27 12:31:07;;;;;;;;;;;30.90;87.30;;;;;;5053210;28;20019;-84
2022/08/27 12:33:44;;;;;;;;;;;31.20;86.50;;;;;;5056543;28;19909;-83
2022/08/27 12:36:15;;;;;;;;;;;31.00;86.40;;;;;;5056318;28;19917;-85
2022/08/27 12:38:49;;;;;;;;;;;30.80;87.40;;;;;;5056441;28;19916;-74
2022/08/27 12:41:30;;;;;;;;;;;30.80;86.10;;;;;;5055963;28;19924;-75
2022/08/27 12:44:04;;;;;;;;;;;31.00;86.90;;;;;;5056205;28;19909;-84
2022/08/27 12:46:29;;;;;;;;;;;31.00;84.90;;;;;;5055709;28;19979;-75
2022/08/27 12:48:56;;;;;;;;;;;30.90;86.20;;;;;;5057002;28;20401;-75
2022/08/27 12:51:30;;;;;;;;;;;31.20;85.50;;;;;;5064372;28;19960;-75
2022/08/27 12:53:58;;;;;;;;;;;31.70;86.50;;;;;;5055393;28;19917;-75
2022/08/27 12:56:26;;;;;;;;;;;32.10;86.00;;;;;;5058020;28;19960;-85
2022/08/27 12:58:55;;;;;;;;;;;32.10;85.20;;;;;;5055807;28;19915;-75
2022/08/27 13:01:29;;;;;;;;;;;31.90;85.60;;;;;;5056244;28;19963;-74
2022/08/27 13:03:54;;;;;;;;;;;31.90;85.50;;;;;;5056134;28;20188;-75
2022/08/27 13:06:26;;;;;;;;;;;31.70;85.10;;;;;;5055911;28;20374;-84
2022/08/27 13:08:53;;;;;;;;;;;31.70;84.50;;;;;;5060751;28;19909;-83
2022/08/27 13:11:20;;;;;;;;;;;31.60;83.60;;;;;;5058881;28;19909;-84
2022/08/27 13:13:46;;;;;;;;;;;31.00;84.30;;;;;;5055653;28;19909;-84
2022/08/27 13:16:12;;;;;;;;;;;30.80;85.00;;;;;;5056136;28;19913;-85
2022/08/27 13:18:38;;;;;;;;;;;31.00;85.10;;;;;;5054720;28;19913;-84
2022/08/27 13:21:19;;;;;;;;;;;31.30;85.30;;;;;;5061125;28;20875;-75
2022/08/27 13:23:47;;;;;;;;;;;31.50;84.30;;;;;;5055250;28;19920;-75
2022/08/27 13:26:13;;;;;;;;;;;31.90;84.10;;;;;;5055920;28;19913;-85
2022/08/27 13:28:39;;;;;;;;;;;32.50;84.30;;;;;;5063722;28;20261;-74
2022/08/27 13:31:06;;;;;;;;;;;33.20;82.30;;;;;;5055401;28;19933;-85
2022/08/27 13:33:33;;;;;;;;;;;33.50;82.10;;;;;;5055633;28;19912;-84
2022/08/27 13:35:59;;;;;;;;;;;33.60;81.50;;;;;;5053654;28;19912;-85
2022/08/27 13:38:26;;;;;;;;;;;32.90;81.00;;;;;;5055539;28;19960;-84
2022/08/27 13:40:57;;;;;;;;;;;32.00;82.20;;;;;;5055500;28;19909;-75
2022/08/27 13:43:48;;;;;;;;;;;31.60;82.10;;;;;;5052457;28;19908;-75
2022/08/27 13:46:19;;;;;;;;;;;30.80;83.00;;;;;;5053331;28;19909;-75
2022/08/27 13:48:47;;;;;;;;;;;30.30;83.50;;;;;;5055220;28;20287;-75
2022/08/27 13:51:14;;;;;;;;;;;31.00;84.20;;;;;;5063378;28;20379;-84
2022/08/27 13:56:31;;;;;;;;;;;32.10;82.30;;;;;;5056894;28;20059;-75
2022/08/27 13:59:06;;;;;;;;;;;32.00;82.10;;;;;;5053356;28;19930;-83
2022/08/27 14:01:32;;;;;;;;;;;31.70;82.40;;;;;;5054451;28;20398;-84
2022/08/27 14:04:02;;;;;;;;;;;31.90;83.40;;;;;;5053271;28;19909;-75
2022/08/27 14:06:31;;;;;;;;;;;31.90;82.80;;;;;;5054940;28;19912;-74
2022/08/27 14:09:06;;;;;;;;;;;31.90;82.10;;;;;;5054585;28;19915;-75
2022/08/27 14:11:32;;;;;;;;;;;31.60;81.90;;;;;;5057042;28;19963;-84
2022/08/27 14:13:58;;;;;;;;;;;31.20;82.70;;;;;;5053068;28;19925;-84
2022/08/27 14:16:25;;;;;;;;;;;31.20;82.50;;;;;;5054683;28;19919;-82
2022/08/27 14:18:55;;;;;;;;;;;32.00;82.30;;;;;;5054276;28;19920;-83
2022/08/27 14:21:21;;;;;;;;;;;32.50;81.30;;;;;;5054651;28;19915;-75
2022/08/27 14:23:46;;;;;;;;;;;32.70;80.60;;;;;;5053116;28;19909;-85
2022/08/27 14:26:12;;;;;;;;;;;33.00;80.10;;;;;;5054532;28;20283;-84
2022/08/27 14:28:38;;;;;;;;;;;33.60;80.10;;;;;;5063461;28;19953;-75